createdAt,value
2023-01-04T00:01:27.165Z,10.25
2023-01-04T00:03:55.161Z,8.18
2023-01-04T00:06:23.368Z,9.30
2023-01-04T00:08:51.212Z,11.68
2023-01-04T00:11:21.375Z,10.02
2023-01-04T00:16:21.792Z,7.30
2023-01-04T00:18:50.565Z,6.80
2023-01-04T00:21:20.827Z,6.85
2023-01-04T00:26:20.201Z,5.72
2023-01-04T00:28:54.464Z,6.57
2023-01-04T00:31:23.991Z,9.40
2023-01-04T00:33:52.513Z,7.87
2023-01-04T00:36:20.387Z,10.00
2023-01-04T00:39:08.007Z,7.03
2023-01-04T00:44:28.097Z,7.97
2023-01-04T00:46:56.062Z,6.38
2023-01-04T00:49:24.231Z,5.43
2023-01-04T00:51:52.486Z,7.32
2023-01-04T00:54:20.729Z,5.38
2023-01-04T00:56:48.774Z,6.25
2023-01-04T00:59:18.618Z,5.10
2023-01-04T01:01:48.294Z,7.90
2023-01-04T01:04:19.564Z,6.25
2023-01-04T01:06:48.122Z,7.35
2023-01-04T01:09:16.699Z,6.70
2023-01-04T01:11:45.022Z,5.35
2023-01-04T01:14:18.126Z,5.35
2023-01-04T01:16:57.675Z,9.10
2023-01-04T01:19:27.518Z,6.40
2023-01-04T01:21:57.014Z,10.73
2023-01-04T01:24:25.282Z,8.55
2023-01-04T01:26:53.238Z,6.22
2023-01-04T01:29:21.145Z,6.10
2023-01-04T01:31:50.519Z,4.80
2023-01-04T01:34:18.430Z,8.05
2023-01-04T01:36:46.378Z,7.32
2023-01-04T01:39:14.415Z,9.25
2023-01-04T01:41:42.379Z,6.57
2023-01-04T01:44:43.980Z,6.80
2023-01-04T01:47:16.291Z,5.93
2023-01-04T01:49:46.536Z,6.50
2023-01-04T01:54:47.805Z,5.18
2023-01-04T01:57:20.072Z,6.00
2023-01-04T01:59:51.382Z,4.80
2023-01-04T02:02:20.830Z,5.40
2023-01-04T02:04:51.823Z,8.05
2023-01-04T02:07:23.560Z,8.77
2023-01-04T02:09:52.168Z,6.20
2023-01-04T02:12:20.138Z,4.97
2023-01-04T02:14:51.409Z,3.58
2023-01-04T02:17:29.950Z,8.02
2023-01-04T02:20:26.463Z,5.30
2023-01-04T02:23:27.900Z,6.82
2023-01-04T02:26:35.340Z,6.28
2023-01-04T02:29:38.177Z,4.55
2023-01-04T02:32:14.271Z,7.60
2023-01-04T02:34:56.486Z,4.53
2023-01-04T02:37:34.564Z,6.65
2023-01-04T02:40:09.666Z,6.72
2023-01-04T02:43:02.929Z,4.10
2023-01-04T02:45:39.002Z,7.47
2023-01-04T02:48:26.907Z,6.97
2023-01-04T02:50:57.087Z,7.05
2023-01-04T02:53:28.442Z,7.40
2023-01-04T02:56:07.959Z,6.13
2023-01-04T02:58:55.830Z,8.20
2023-01-04T03:01:51.875Z,6.03
2023-01-04T03:04:54.047Z,5.07
2023-01-04T03:07:28.761Z,6.63
2023-01-04T03:10:06.900Z,3.58
2023-01-04T03:12:42.520Z,5.38
2023-01-04T03:15:16.129Z,6.95
2023-01-04T03:17:47.934Z,7.03
2023-01-04T03:20:19.169Z,6.45
2023-01-04T03:23:09.197Z,5.75
2023-01-04T03:26:00.440Z,6.53
2023-01-04T03:28:51.142Z,7.28
2023-01-04T03:31:41.301Z,5.55
2023-01-04T03:34:26.812Z,7.75
2023-01-04T03:37:15.986Z,6.68
2023-01-04T03:40:21.891Z,8.00
2023-01-04T03:43:17.273Z,7.75
2023-01-04T03:46:07.635Z,6.07
2023-01-04T03:48:40.392Z,5.10
2023-01-04T03:51:15.566Z,6.38
2023-01-04T03:53:55.311Z,6.70
2023-01-04T03:56:24.941Z,8.55
2023-01-04T03:58:54.817Z,9.30
2023-01-04T04:01:25.369Z,11.57
2023-01-04T04:04:11.389Z,6.85
2023-01-04T04:06:56.887Z,7.88
2023-01-04T04:09:26.317Z,9.63
2023-01-04T04:11:54.882Z,5.90
2023-01-04T04:14:22.706Z,9.18
2023-01-04T04:16:50.799Z,10.13
2023-01-04T04:19:18.827Z,9.90
2023-01-04T04:21:46.785Z,7.03
2023-01-04T04:24:19.284Z,8.40
2023-01-04T04:26:48.734Z,8.80
2023-01-04T04:29:16.680Z,8.50
2023-01-04T04:31:44.618Z,7.85
2023-01-04T04:34:12.709Z,8.60
2023-01-04T04:36:40.557Z,8.55
2023-01-04T04:39:08.627Z,7.25
2023-01-04T04:41:41.911Z,8.43
2023-01-04T04:44:13.323Z,7.47
2023-01-04T04:46:42.184Z,8.73
2023-01-04T04:49:10.943Z,5.95
2023-01-04T04:51:39.392Z,7.50
2023-01-04T04:54:10.616Z,8.55
2023-01-04T04:56:38.894Z,6.65
2023-01-04T04:59:07.451Z,7.65
2023-01-04T05:01:36.944Z,9.05
2023-01-04T05:04:05.350Z,5.80
2023-01-04T05:06:33.487Z,8.10
2023-01-04T05:09:01.284Z,9.93
2023-01-04T05:11:42.990Z,6.30
2023-01-04T05:14:11.538Z,7.40
2023-01-04T05:16:40.896Z,8.63
2023-01-04T05:19:08.861Z,7.37
2023-01-04T05:21:36.701Z,7.88
2023-01-04T05:24:04.860Z,6.20
2023-01-04T05:26:32.857Z,6.10
2023-01-04T05:29:00.698Z,7.38
2023-01-04T05:31:27.640Z,6.63
2023-01-04T05:33:57.040Z,9.63
2023-01-04T05:36:24.983Z,6.33
2023-01-04T05:38:52.926Z,6.45
2023-01-04T05:41:38.134Z,6.07
2023-01-04T05:44:06.054Z,6.38
2023-01-04T05:46:34.152Z,7.65
2023-01-04T05:49:03.678Z,5.72
2023-01-04T05:51:31.571Z,5.28
2023-01-04T05:53:59.389Z,8.27
2023-01-04T05:56:27.312Z,5.50
2023-01-04T05:58:55.485Z,5.93
2023-01-04T06:01:23.409Z,6.17
2023-01-04T06:03:51.514Z,6.18
2023-01-04T06:06:20.791Z,5.70
2023-01-04T06:08:48.668Z,5.22
2023-01-04T06:11:16.593Z,5.50
2023-01-04T06:13:44.703Z,5.35
2023-01-04T06:16:12.575Z,5.60
2023-01-04T06:18:40.654Z,5.90
2023-01-04T06:21:08.587Z,4.55
2023-01-04T06:23:37.815Z,5.18
2023-01-04T06:26:05.933Z,5.15
2023-01-04T06:28:40.317Z,5.13
2023-01-04T06:31:10.377Z,4.57
2023-01-04T06:33:38.515Z,3.38
2023-01-04T06:36:07.599Z,5.72
2023-01-04T06:38:49.163Z,4.53
2023-01-04T06:41:17.623Z,5.20
2023-01-04T06:43:45.607Z,4.43
2023-01-04T06:46:13.571Z,5.32
2023-01-04T06:48:41.644Z,3.40
2023-01-04T06:51:09.461Z,3.50
2023-01-04T06:53:37.435Z,15.63
2023-01-04T06:56:08.257Z,2.95
2023-01-04T06:58:36.219Z,3.17
2023-01-04T07:01:04.625Z,2.67
2023-01-04T07:03:32.636Z,2.22
2023-01-04T07:06:00.768Z,3.47
2023-01-04T07:08:28.634Z,3.08
2023-01-04T07:10:56.555Z,2.28
2023-01-04T07:13:25.899Z,4.28
2023-01-04T07:15:53.859Z,3.87
2023-01-04T07:18:22.117Z,2.45
2023-01-04T07:20:50.104Z,2.53
2023-01-04T07:23:18.063Z,3.95
2023-01-04T07:25:46.292Z,2.78
2023-01-04T07:28:34.913Z,4.10
2023-01-04T07:31:07.673Z,2.50
2023-01-04T07:33:35.759Z,2.13
2023-01-04T07:36:05.259Z,2.30
2023-01-04T07:38:34.101Z,3.45
2023-01-04T07:41:02.018Z,2.75
2023-01-04T07:43:29.901Z,2.00
2023-01-04T07:45:57.822Z,3.28
2023-01-04T07:48:29.403Z,2.83
2023-01-04T07:50:57.410Z,3.00
2023-01-04T07:53:25.406Z,2.83
2023-01-04T07:55:57.106Z,4.45
2023-01-04T07:58:25.346Z,2.00
2023-01-04T08:00:53.305Z,1.42
2023-01-04T08:03:21.156Z,1.73
2023-01-04T08:05:50.433Z,2.00
2023-01-04T08:08:18.381Z,1.75
2023-01-04T08:10:46.322Z,2.90
2023-01-04T08:13:14.188Z,1.40
2023-01-04T08:15:42.146Z,2.60
2023-01-04T08:18:10.430Z,1.23
2023-01-04T08:20:38.323Z,1.20
2023-01-04T08:23:07.766Z,1.45
2023-01-04T08:25:35.821Z,0.75
2023-01-04T08:28:03.716Z,1.40
2023-01-04T08:30:31.638Z,1.05
2023-01-04T08:32:59.552Z,1.60
2023-01-04T08:35:27.410Z,0.90
2023-01-04T08:38:02.911Z,0.95
2023-01-04T08:40:58.610Z,1.70
2023-01-04T08:43:30.620Z,2.03
2023-01-04T08:45:58.752Z,1.23
2023-01-04T08:48:26.715Z,1.88
2023-01-04T08:50:54.539Z,1.13
2023-01-04T08:53:22.374Z,1.05
2023-01-04T08:55:53.141Z,1.05
2023-01-04T08:58:21.472Z,1.45
2023-01-04T09:00:50.038Z,0.80
2023-01-04T09:03:17.958Z,0.93
2023-01-04T09:05:46.392Z,0.70
2023-01-04T09:08:14.522Z,1.15
2023-01-04T09:10:42.451Z,3.20
2023-01-04T09:13:11.654Z,0.85
2023-01-04T09:15:39.584Z,2.42
2023-01-04T09:20:56.451Z,1.63
2023-01-04T09:23:24.473Z,1.95
2023-01-04T09:25:52.573Z,1.98
2023-01-04T09:28:22.047Z,1.02
2023-01-04T09:30:50.156Z,0.85
2023-01-04T09:33:18.053Z,0.95
2023-01-04T09:35:46.174Z,1.20
2023-01-04T09:38:14.493Z,0.75
2023-01-04T09:40:52.350Z,0.80
2023-01-04T09:43:24.054Z,1.13
2023-01-04T09:45:55.473Z,0.80
2023-01-04T09:48:27.063Z,2.67
2023-01-04T09:50:59.337Z,1.10
2023-01-04T09:53:32.250Z,0.80
2023-01-04T09:56:09.128Z,1.20
2023-01-04T09:58:41.994Z,0.80
2023-01-04T10:01:16.000Z,1.33
2023-01-04T10:03:52.938Z,1.40
2023-01-04T10:06:20.952Z,1.48
2023-01-04T10:08:49.164Z,1.77
2023-01-04T10:11:30.047Z,0.90
2023-01-04T10:14:18.150Z,1.35
2023-01-04T10:17:12.786Z,1.45
2023-01-04T10:22:58.699Z,1.95
2023-01-04T10:25:33.292Z,0.73
2023-01-04T10:28:16.061Z,1.83
2023-01-04T10:30:55.082Z,1.85
2023-01-04T10:33:29.758Z,0.70
2023-01-04T10:35:58.374Z,0.70
2023-01-04T10:38:29.354Z,0.65
2023-01-04T10:40:59.637Z,2.13
2023-01-04T10:46:28.053Z,2.78
2023-01-04T10:49:02.119Z,0.57
2023-01-04T10:51:36.113Z,0.80
2023-01-04T10:54:11.136Z,0.65
2023-01-04T10:56:46.153Z,0.50
2023-01-04T10:59:19.827Z,1.00
2023-01-04T11:01:55.006Z,0.70
2023-01-04T11:04:26.814Z,0.70
2023-01-04T11:07:01.406Z,1.77
2023-01-04T11:09:36.575Z,1.58
2023-01-04T11:12:10.818Z,4.20
2023-01-04T11:14:38.830Z,1.75
2023-01-04T11:17:11.106Z,1.25
2023-01-04T11:19:40.469Z,1.15
2023-01-04T11:22:16.872Z,1.00
2023-01-04T11:25:32.689Z,1.20
2023-01-04T11:27:45.204Z,2.95
2023-01-04T11:30:19.941Z,2.53
2023-01-04T11:32:56.153Z,1.30
2023-01-04T11:35:42.553Z,0.90
2023-01-04T11:38:16.604Z,1.30
2023-01-04T11:40:56.623Z,2.08
2023-01-04T11:43:26.395Z,2.47
2023-01-04T11:46:05.392Z,2.10
2023-01-04T11:48:38.395Z,1.23
2023-01-04T11:51:12.389Z,2.65
2023-01-04T11:53:43.615Z,2.00
2023-01-04T11:56:18.836Z,0.63
2023-01-04T11:59:04.847Z,1.55
2023-01-04T12:01:35.733Z,1.10
2023-01-04T12:04:10.871Z,1.65
2023-01-04T12:06:42.500Z,0.82
2023-01-04T12:09:15.227Z,0.70
2023-01-04T12:11:46.760Z,0.80
2023-01-04T12:14:20.735Z,0.80
2023-01-04T12:16:53.658Z,0.70
2023-01-04T12:19:23.409Z,0.77
2023-01-04T12:21:54.213Z,1.02
2023-01-04T12:24:25.115Z,1.60
2023-01-04T12:26:54.237Z,0.98
2023-01-04T12:29:54.724Z,1.30
2023-01-04T12:32:43.771Z,1.80
2023-01-04T12:36:06.927Z,1.50
2023-01-04T12:39:03.432Z,1.30
2023-01-04T12:42:18.847Z,0.90
2023-01-04T12:45:02.227Z,0.70
2023-01-04T12:48:01.168Z,1.40
2023-01-04T12:50:31.303Z,1.75
2023-01-04T12:53:30.900Z,1.75
2023-01-04T12:56:01.013Z,1.60
2023-01-04T12:59:25.245Z,1.73
2023-01-04T13:02:19.826Z,0.77
2023-01-04T13:04:48.900Z,0.68
2023-01-04T13:07:21.386Z,0.77
2023-01-04T13:09:55.693Z,0.60
2023-01-04T13:13:10.374Z,0.70
2023-01-04T13:15:51.855Z,1.88
2023-01-04T13:18:41.630Z,0.60
2023-01-04T13:21:18.578Z,1.88
2023-01-04T13:23:52.719Z,0.65
2023-01-04T13:26:40.066Z,0.60
2023-01-04T13:29:22.048Z,1.63
2023-01-04T13:31:53.092Z,0.60
2023-01-04T13:34:23.860Z,0.50
2023-01-04T13:37:07.902Z,0.50
2023-01-04T13:39:36.893Z,0.40
2023-01-04T13:42:06.461Z,1.00
2023-01-04T13:47:51.402Z,0.73
2023-01-04T13:53:09.375Z,0.65
2023-01-04T13:55:38.658Z,0.60
2023-01-04T13:58:08.518Z,0.57
2023-01-04T14:00:45.680Z,1.33
2023-01-04T14:03:22.504Z,0.70
2023-01-04T14:05:54.229Z,0.80
2023-01-04T14:08:31.768Z,1.10
2023-01-04T14:10:59.938Z,0.68
2023-01-04T14:13:28.522Z,0.80
2023-01-04T14:16:13.762Z,0.95
2023-01-04T14:18:41.814Z,1.10
2023-01-04T14:21:17.559Z,1.52
2023-01-04T14:23:45.470Z,1.23
2023-01-04T14:26:31.242Z,1.88
2023-01-04T14:28:59.207Z,0.95
2023-01-04T14:31:33.224Z,0.80
2023-01-04T14:34:07.494Z,2.28
2023-01-04T14:36:42.920Z,1.10
2023-01-04T14:39:28.353Z,1.33
2023-01-04T14:41:59.669Z,1.52
2023-01-04T14:44:30.813Z,1.20
2023-01-04T14:47:04.624Z,1.85
2023-01-04T14:49:32.967Z,1.77
2023-01-04T14:52:02.719Z,2.75
2023-01-04T14:54:31.773Z,1.60
2023-01-04T14:57:00.396Z,2.53
2023-01-04T14:59:28.712Z,2.05
2023-01-04T15:01:58.188Z,2.75
2023-01-04T15:04:27.680Z,2.97
2023-01-04T15:06:57.878Z,3.08
2023-01-04T15:11:53.654Z,3.17
2023-01-04T15:14:21.607Z,3.20
2023-01-04T15:16:49.704Z,1.83
2023-01-04T15:19:17.840Z,2.30
2023-01-04T15:21:47.100Z,2.88
2023-01-04T15:24:15.005Z,3.65
2023-01-04T15:26:43.780Z,3.53
2023-01-04T15:29:11.713Z,5.65
2023-01-04T15:31:41.624Z,3.75
2023-01-04T15:34:10.802Z,5.53
2023-01-04T15:36:41.094Z,2.80
2023-01-04T15:39:13.957Z,4.28
2023-01-04T15:41:59.683Z,4.28
2023-01-04T15:44:28.267Z,2.83
2023-01-04T15:46:56.317Z,3.55
2023-01-04T15:49:24.529Z,4.10
2023-01-04T15:51:52.392Z,4.85
2023-01-04T15:54:22.149Z,4.22
2023-01-04T15:56:50.152Z,4.80
2023-01-04T15:59:18.128Z,1.80
2023-01-04T16:01:46.656Z,5.45
2023-01-04T16:04:14.983Z,3.50
2023-01-04T16:06:42.839Z,3.28
2023-01-04T16:09:10.879Z,2.25
2023-01-04T16:12:01.052Z,3.03
2023-01-04T16:14:28.898Z,2.47
2023-01-04T16:16:57.447Z,2.53
2023-01-04T16:19:25.453Z,2.45
2023-01-04T16:21:53.304Z,2.20
2023-01-04T16:25:00.021Z,3.50
2023-01-04T16:27:10.803Z,3.97
2023-01-04T16:29:38.710Z,4.43
2023-01-04T16:32:07.319Z,4.85
2023-01-04T16:34:35.477Z,3.65
2023-01-04T16:37:03.454Z,4.13
2023-01-04T16:42:20.935Z,4.88
2023-01-04T16:44:48.779Z,5.10
2023-01-04T16:47:16.721Z,4.03
2023-01-04T16:49:44.749Z,3.08
2023-01-04T16:52:14.092Z,6.13
2023-01-04T16:54:41.995Z,8.77
2023-01-04T16:57:10.043Z,5.10
2023-01-04T16:59:39.546Z,4.13
2023-01-04T17:02:07.536Z,5.77
2023-01-04T17:04:35.628Z,3.72
2023-01-04T17:07:03.528Z,4.57
2023-01-04T17:09:31.670Z,7.18
2023-01-04T17:15:15.000Z,4.75
2023-01-04T17:17:39.089Z,4.00
2023-01-04T17:20:08.452Z,5.10
2023-01-04T17:22:36.843Z,5.40
2023-01-04T17:25:05.501Z,5.25
2023-01-04T17:27:33.571Z,6.03
2023-01-04T17:30:03.270Z,4.40
2023-01-04T17:32:31.201Z,6.10
2023-01-04T17:34:59.105Z,6.03
2023-01-04T17:37:27.751Z,4.43
2023-01-04T17:39:55.825Z,6.32
2023-01-04T17:42:23.805Z,4.85
2023-01-04T17:44:51.965Z,6.38
2023-01-04T17:47:21.494Z,5.47
2023-01-04T17:49:49.439Z,4.68
2023-01-04T17:52:24.348Z,8.60
2023-01-04T17:54:56.857Z,5.35
2023-01-04T17:57:25.682Z,10.65
2023-01-04T17:59:53.720Z,9.73
2023-01-04T18:02:23.235Z,7.10
2023-01-04T18:04:52.010Z,5.45
2023-01-04T18:07:25.101Z,5.95
2023-01-04T18:09:53.301Z,5.95
2023-01-04T18:12:22.240Z,8.80
2023-01-04T18:14:50.253Z,8.50
2023-01-04T18:17:18.274Z,8.77
2023-01-04T18:19:47.432Z,6.72
2023-01-04T18:22:15.569Z,6.53
2023-01-04T18:24:43.470Z,8.52
2023-01-04T18:27:22.017Z,10.25
2023-01-04T18:29:51.941Z,8.63
2023-01-04T18:32:20.065Z,10.68
2023-01-04T18:34:49.522Z,8.40
2023-01-04T18:37:18.582Z,7.65
2023-01-04T18:39:47.164Z,11.60
2023-01-04T18:42:15.361Z,9.82
2023-01-04T18:44:48.314Z,11.35
2023-01-04T18:47:17.690Z,11.30
2023-01-04T18:49:45.555Z,9.90
2023-01-04T18:52:14.991Z,7.90
2023-01-04T18:54:43.117Z,8.57
2023-01-04T18:57:10.969Z,10.32
2023-01-04T18:59:38.990Z,10.15
2023-01-04T19:02:07.002Z,12.43
2023-01-04T19:04:37.360Z,10.02
2023-01-04T19:09:34.583Z,8.80
2023-01-04T19:12:02.585Z,10.90
2023-01-04T19:14:30.475Z,9.93
2023-01-04T19:16:58.336Z,11.68
2023-01-04T19:19:26.174Z,10.95
2023-01-04T19:21:54.372Z,10.70
2023-01-04T19:24:22.355Z,12.43
2023-01-04T19:26:52.521Z,10.82
2023-01-04T19:29:20.483Z,11.35
2023-01-04T19:31:49.193Z,14.80
2023-01-04T19:34:17.120Z,10.18
2023-01-04T19:36:45.123Z,9.30
2023-01-04T19:39:13.283Z,11.57
2023-01-04T19:41:41.303Z,11.73
2023-01-04T19:44:13.118Z,10.90
2023-01-04T19:46:41.956Z,14.52
2023-01-04T19:49:15.241Z,8.57
2023-01-04T19:51:46.379Z,8.80
2023-01-04T19:54:18.683Z,10.07
2023-01-04T19:56:51.460Z,9.73
2023-01-04T19:59:20.689Z,9.75
2023-01-04T20:01:48.910Z,10.02
2023-01-04T20:04:16.963Z,10.93
2023-01-04T20:06:44.839Z,8.68
2023-01-04T20:09:13.059Z,10.02
2023-01-04T20:11:41.464Z,9.63
2023-01-04T20:14:09.382Z,8.18
2023-01-04T20:16:38.781Z,9.18
2023-01-04T20:19:06.719Z,10.03
2023-01-04T20:21:34.716Z,10.93
2023-01-04T20:24:03.379Z,12.70
2023-01-04T20:26:31.458Z,13.05
2023-01-04T20:28:59.351Z,8.73
2023-01-04T20:31:27.412Z,12.88
2023-01-04T20:33:57.409Z,17.88
2023-01-04T20:36:29.421Z,8.55
2023-01-04T20:38:59.644Z,13.90
2023-01-04T20:43:56.293Z,11.20
2023-01-04T20:46:27.222Z,8.70
2023-01-04T20:48:57.018Z,7.30
2023-01-04T20:51:26.420Z,9.23
2023-01-04T20:53:55.072Z,9.35
2023-01-04T20:56:25.520Z,8.10
2023-01-04T20:58:54.380Z,11.50
2023-01-04T21:01:23.457Z,5.68
2023-01-04T21:03:51.578Z,8.20
2023-01-04T21:06:22.457Z,5.55
2023-01-04T21:08:52.632Z,6.13
2023-01-04T21:11:20.588Z,4.70
2023-01-04T21:13:50.545Z,5.65
2023-01-04T21:16:18.504Z,3.63
2023-01-04T21:18:46.755Z,5.97
2023-01-04T21:21:16.838Z,4.38
2023-01-04T21:23:46.956Z,7.00
2023-01-04T21:26:16.702Z,8.80
2023-01-04T21:28:44.631Z,5.80
2023-01-04T21:31:13.874Z,7.95
2023-01-04T21:33:41.850Z,5.18
2023-01-04T21:36:13.245Z,8.13
2023-01-04T21:38:41.223Z,10.63
2023-01-04T21:41:12.315Z,11.65
2023-01-04T21:43:40.516Z,8.40
2023-01-04T21:46:10.574Z,7.50
2023-01-04T21:48:38.841Z,10.38
2023-01-04T21:51:07.937Z,13.88
2023-01-04T21:53:37.515Z,13.13
2023-01-04T21:56:07.558Z,14.88
2023-01-04T21:58:36.872Z,12.38
2023-01-04T22:01:09.958Z,15.60
2023-01-04T22:03:38.029Z,10.82
2023-01-04T22:06:06.819Z,14.65
2023-01-04T22:08:35.131Z,12.10
2023-01-04T22:11:04.969Z,20.30
2023-01-04T22:13:33.158Z,18.40
2023-01-04T22:16:06.821Z,12.13
2023-01-04T22:18:35.224Z,16.67
2023-01-04T22:21:03.975Z,10.30
2023-01-04T22:23:32.195Z,16.02
2023-01-04T22:26:00.417Z,16.30
2023-01-04T22:28:34.680Z,16.45
2023-01-04T22:31:07.645Z,14.90
2023-01-04T22:33:36.215Z,17.30
2023-01-04T22:36:05.810Z,16.77
2023-01-04T22:38:35.690Z,18.17
2023-01-04T22:41:07.453Z,20.13
2023-01-04T22:43:36.431Z,16.83
2023-01-04T22:46:07.893Z,21.63
2023-01-04T22:48:36.378Z,23.83
2023-01-04T22:51:07.671Z,26.15
2023-01-04T22:53:35.881Z,20.90
2023-01-04T22:56:23.132Z,20.27
2023-01-04T22:58:54.541Z,23.50
2023-01-04T23:01:26.194Z,16.50
2023-01-04T23:03:54.953Z,19.58
2023-01-04T23:06:24.786Z,19.60
2023-01-04T23:08:57.745Z,14.32
2023-01-04T23:11:27.120Z,18.25
2023-01-04T23:13:55.530Z,18.73
2023-01-04T23:16:31.835Z,14.85
2023-01-04T23:19:00.963Z,24.50
2023-01-04T23:21:28.976Z,15.07
2023-01-04T23:23:56.903Z,17.05
2023-01-04T23:26:26.597Z,14.63
2023-01-04T23:28:54.769Z,14.60
2023-01-04T23:31:26.591Z,16.98
2023-01-04T23:33:56.552Z,23.17
2023-01-04T23:36:26.576Z,21.27
2023-01-04T23:38:57.136Z,24.05
2023-01-04T23:41:44.458Z,19.45
2023-01-04T23:44:18.461Z,18.88
2023-01-04T23:46:51.245Z,23.17
2023-01-04T23:49:19.176Z,26.15
2023-01-04T23:51:47.421Z,22.77
2023-01-04T23:54:15.231Z,23.30
2023-01-04T23:56:43.309Z,20.85
2023-01-04T23:59:11.713Z,20.95
